Time;durP1;ratioP1;P1;durP2;ratioP2;P2;SDS_P1;SDS_P2;PMS_P1;PMS_P2;Temp;Humidity;BMP_temperature;BMP_pressure;BME280_temperature;BME280_humidity;BME280_pressure;Samples;Min_cycle;Max_cycle;Signal;HPM_P1;HPM_P2
2023/02/17 00:00:57;;;;;;;51.47;21.30;;;;;;;;;;6206722;23;20567;-89
2023/02/17 00:04:02;;;;;;;47.00;20.87;;;;;;;;;;6187462;23;20168;-88
2023/02/17 00:07:08;;;;;;;47.33;21.17;;;;;;;;;;6198889;23;20233;-93
2023/02/17 00:10:13;;;;;;;50.27;21.40;;;;;;;;;;6181992;23;20220;-92
2023/02/17 00:13:25;;;;;;;47.50;20.93;;;;;;;;;;6197414;23;20171;-90
2023/02/17 00:16:30;;;;;;;54.03;22.17;;;;;;;;;;6180103;23;20276;-90
2023/02/17 00:19:43;;;;;;;48.90;21.10;;;;;;;;;;6198540;23;20238;-90
2023/02/17 00:22:48;;;;;;;52.53;21.13;;;;;;;;;;6180475;23;20208;-91
2023/02/17 00:25:53;;;;;;;50.23;21.47;;;;;;;;;;6198167;23;20172;-89
2023/02/17 00:29:00;;;;;;;52.73;22.27;;;;;;;;;;6180033;23;20288;-89
2023/02/17 00:32:05;;;;;;;54.17;21.97;;;;;;;;;;6196993;23;20180;-92
2023/02/17 00:35:10;;;;;;;52.73;22.10;;;;;;;;;;6179562;23;20156;-90
2023/02/17 00:38:20;;;;;;;51.20;22.17;;;;;;;;;;6194933;23;20207;-91
2023/02/17 00:41:25;;;;;;;53.07;22.73;;;;;;;;;;6196815;23;20155;-90
2023/02/17 00:44:31;;;;;;;57.87;23.17;;;;;;;;;;6178499;23;20615;-90
2023/02/17 00:47:37;;;;;;;57.77;23.83;;;;;;;;;;6178732;23;20168;-92
2023/02/17 00:50:42;;;;;;;53.23;21.97;;;;;;;;;;6198106;23;20172;-89
2023/02/17 00:53:47;;;;;;;50.43;22.20;;;;;;;;;;6196560;23;20247;-89
2023/02/17 00:56:52;;;;;;;50.73;21.77;;;;;;;;;;6198544;23;20215;-92
2023/02/17 00:59:59;;;;;;;49.17;21.10;;;;;;;;;;6197903;23;20211;-89
2023/02/17 01:03:05;;;;;;;54.27;21.97;;;;;;;;;;6197697;23;20183;-89
2023/02/17 01:06:11;;;;;;;56.10;22.87;;;;;;;;;;6196975;23;20159;-90
2023/02/17 01:09:19;;;;;;;67.90;30.47;;;;;;;;;;6180721;23;20207;-90
2023/02/17 01:12:27;;;;;;;57.87;25.60;;;;;;;;;;6200763;23;20207;-89
2023/02/17 01:15:37;;;;;;;51.90;21.90;;;;;;;;;;6197964;23;20199;-90
2023/02/17 01:18:42;;;;;;;46.13;20.47;;;;;;;;;;6198846;23;20190;-91
2023/02/17 01:21:49;;;;;;;54.30;21.50;;;;;;;;;;6198224;23;20151;-89
2023/02/17 01:24:55;;;;;;;52.07;21.23;;;;;;;;;;6197592;23;20176;-91
2023/02/17 01:28:00;;;;;;;49.00;20.33;;;;;;;;;;6198583;23;20171;-89
2023/02/17 01:31:08;;;;;;;57.03;23.43;;;;;;;;;;6200314;23;20482;-89
2023/02/17 01:34:13;;;;;;;54.67;23.63;;;;;;;;;;6200380;23;20191;-91
2023/02/17 01:37:18;;;;;;;56.17;22.50;;;;;;;;;;6199997;23;20207;-93
2023/02/17 01:40:24;;;;;;;50.97;21.77;;;;;;;;;;6182734;23;20176;-91
2023/02/17 01:43:29;;;;;;;52.10;21.80;;;;;;;;;;6199833;23;20180;-92
2023/02/17 01:46:36;;;;;;;52.87;23.00;;;;;;;;;;6200467;23;20692;-91
2023/02/17 01:49:42;;;;;;;51.03;21.77;;;;;;;;;;6181777;23;20599;-89
2023/02/17 01:52:47;;;;;;;53.10;22.60;;;;;;;;;;6183217;23;20172;-89
2023/02/17 01:55:52;;;;;;;58.47;23.70;;;;;;;;;;6200446;23;20171;-88
2023/02/17 01:59:00;;;;;;;52.93;22.47;;;;;;;;;;6181288;23;20196;-88
2023/02/17 02:02:08;;;;;;;49.97;21.23;;;;;;;;;;6201280;23;20188;-92
2023/02/17 02:05:15;;;;;;;56.70;22.43;;;;;;;;;;6180878;23;20619;-91
2023/02/17 02:08:22;;;;;;;47.77;21.63;;;;;;;;;;6198893;23;20176;-89
2023/02/17 02:11:28;;;;;;;51.30;21.57;;;;;;;;;;6181034;23;20168;-89
2023/02/17 02:14:33;;;;;;;52.40;21.40;;;;;;;;;;6179488;23;20179;-89
2023/02/17 02:17:43;;;;;;;54.27;21.23;;;;;;;;;;6179755;23;20167;-90
2023/02/17 02:21:07;;;;;;;49.57;21.17;;;;;;;;;;6179200;23;20207;-91
2023/02/17 02:24:27;;;;;;;50.97;20.63;;;;;;;;;;6155193;23;20195;-92
2023/02/17 02:27:47;;;;;;;49.93;20.77;;;;;;;;;;6182780;23;20187;-89
2023/02/17 02:31:04;;;;;;;46.83;20.73;;;;;;;;;;6182710;23;20292;-93
2023/02/17 02:34:13;;;;;;;49.00;20.27;;;;;;;;;;6200356;23;20220;-90
2023/02/17 02:37:23;;;;;;;47.63;20.90;;;;;;;;;;6181262;23;20244;-90
2023/02/17 02:40:30;;;;;;;49.77;21.20;;;;;;;;;;6201745;23;20195;-91
2023/02/17 02:43:36;;;;;;;50.73;20.60;;;;;;;;;;6199266;23;20156;-88
2023/02/17 02:46:41;;;;;;;49.53;20.57;;;;;;;;;;6179763;23;20321;-88
2023/02/17 02:49:48;;;;;;;48.50;21.23;;;;;;;;;;6196594;23;20172;-93
2023/02/17 02:52:59;;;;;;;48.17;21.30;;;;;;;;;;6179965;23;20164;-89
2023/02/17 02:56:09;;;;;;;52.73;21.63;;;;;;;;;;6196321;23;20180;-89
2023/02/17 02:59:21;;;;;;;50.03;20.93;;;;;;;;;;6179605;23;20222;-88
2023/02/17 03:02:32;;;;;;;53.20;22.63;;;;;;;;;;6178296;23;20291;-89
2023/02/17 03:05:43;;;;;;;52.60;21.47;;;;;;;;;;6179786;23;20504;-88
2023/02/17 03:08:52;;;;;;;52.13;20.90;;;;;;;;;;6193979;23;20227;-89
2023/02/17 03:11:58;;;;;;;49.73;21.70;;;;;;;;;;6179244;23;20215;-89
2023/02/17 03:15:06;;;;;;;48.53;20.73;;;;;;;;;;6196671;23;20268;-87
2023/02/17 03:18:11;;;;;;;50.13;20.13;;;;;;;;;;6179316;23;20172;-88
2023/02/17 03:21:20;;;;;;;48.20;21.83;;;;;;;;;;6179595;23;20175;-89
2023/02/17 03:24:26;;;;;;;50.13;21.23;;;;;;;;;;6179060;23;20175;-91
2023/02/17 03:27:31;;;;;;;50.83;20.97;;;;;;;;;;6197182;23;20156;-90
2023/02/17 03:30:37;;;;;;;53.33;21.60;;;;;;;;;;6180214;23;20172;-91
2023/02/17 03:33:42;;;;;;;52.03;21.70;;;;;;;;;;6180079;23;20172;-87
2023/02/17 03:36:48;;;;;;;51.27;22.00;;;;;;;;;;6180163;23;20167;-90
2023/02/17 03:39:53;;;;;;;59.20;21.83;;;;;;;;;;6180707;23;20207;-89
2023/02/17 03:42:59;;;;;;;53.23;21.37;;;;;;;;;;6180459;23;20171;-92
2023/02/17 03:46:04;;;;;;;49.90;21.17;;;;;;;;;;6181258;23;20179;-89
2023/02/17 03:49:10;;;;;;;53.80;21.60;;;;;;;;;;6179920;23;20196;-88
2023/02/17 03:52:16;;;;;;;50.73;20.33;;;;;;;;;;6198061;23;20164;-89
2023/02/17 03:55:22;;;;;;;50.07;21.57;;;;;;;;;;6181202;23;20212;-91
2023/02/17 03:58:27;;;;;;;48.30;20.07;;;;;;;;;;6180790;23;20219;-89
2023/02/17 04:02:04;;;;;;;46.50;19.67;;;;;;;;;;6179591;23;20224;-90
2023/02/17 04:05:09;;;;;;;53.43;22.00;;;;;;;;;;6179377;23;20168;-89
2023/02/17 04:08:16;;;;;;;50.23;21.30;;;;;;;;;;6197238;23;20224;-90
2023/02/17 04:11:21;;;;;;;50.37;21.77;;;;;;;;;;6179731;23;20168;-89
2023/02/17 04:14:31;;;;;;;55.23;22.17;;;;;;;;;;6196623;23;20175;-88
2023/02/17 04:17:37;;;;;;;54.23;22.40;;;;;;;;;;6179641;23;20242;-90
2023/02/17 04:20:42;;;;;;;57.73;25.77;;;;;;;;;;6195487;23;20268;-90
2023/02/17 04:23:50;;;;;;;57.73;24.53;;;;;;;;;;6182131;23;20196;-89
2023/02/17 04:26:55;;;;;;;52.53;22.60;;;;;;;;;;6182367;23;20284;-91
2023/02/17 04:30:00;;;;;;;52.53;22.07;;;;;;;;;;6181211;23;20167;-88
2023/02/17 04:33:05;;;;;;;51.97;20.90;;;;;;;;;;6198839;23;20168;-90
2023/02/17 04:36:10;;;;;;;53.90;21.73;;;;;;;;;;6180291;23;20236;-90
2023/02/17 04:39:17;;;;;;;50.67;21.23;;;;;;;;;;6198213;23;20191;-91
2023/02/17 04:42:22;;;;;;;52.33;21.47;;;;;;;;;;6181878;23;20171;-90
2023/02/17 04:45:27;;;;;;;55.47;21.43;;;;;;;;;;6198770;23;20250;-91
2023/02/17 04:48:33;;;;;;;46.23;20.13;;;;;;;;;;6182082;23;20171;-93
2023/02/17 04:51:37;;;;;;;45.87;21.10;;;;;;;;;;6199468;23;20204;-90
2023/02/17 04:54:44;;;;;;;53.10;21.43;;;;;;;;;;6181485;23;20270;-90
2023/02/17 04:57:49;;;;;;;53.27;21.60;;;;;;;;;;6199771;23;20175;-92
2023/02/17 05:00:55;;;;;;;45.27;20.23;;;;;;;;;;6180121;23;20248;-91
2023/02/17 05:04:01;;;;;;;48.73;20.00;;;;;;;;;;6201263;23;20159;-88
2023/02/17 05:07:06;;;;;;;54.20;22.17;;;;;;;;;;6185147;23;20164;-90
2023/02/17 05:10:14;;;;;;;54.03;21.97;;;;;;;;;;6201159;23;20923;-89
2023/02/17 05:13:21;;;;;;;52.27;22.20;;;;;;;;;;6183159;23;20217;-91
2023/02/17 05:16:26;;;;;;;54.77;22.00;;;;;;;;;;6184072;23;20172;-90
2023/02/17 05:19:36;;;;;;;54.37;21.30;;;;;;;;;;6180948;23;20249;-89
2023/02/17 05:22:41;;;;;;;50.57;21.63;;;;;;;;;;6199163;23;20219;-90
2023/02/17 05:25:48;;;;;;;47.07;20.10;;;;;;;;;;6184587;23;20175;-91
2023/02/17 05:28:53;;;;;;;54.87;21.87;;;;;;;;;;6200711;23;20230;-90
2023/02/17 05:31:58;;;;;;;46.80;20.33;;;;;;;;;;6182551;23;20175;-89
2023/02/17 05:35:03;;;;;;;50.90;21.07;;;;;;;;;;6181628;23;20171;-90
2023/02/17 05:38:09;;;;;;;46.83;20.53;;;;;;;;;;6182006;23;20231;-89
2023/02/17 05:41:16;;;;;;;51.60;21.20;;;;;;;;;;6198164;23;20195;-90
2023/02/17 05:44:21;;;;;;;51.77;21.87;;;;;;;;;;6181982;23;20156;-91
2023/02/17 05:47:28;;;;;;;50.67;21.83;;;;;;;;;;6203521;23;20211;-89
2023/02/17 05:50:34;;;;;;;55.23;22.13;;;;;;;;;;6204237;23;20237;-90
2023/02/17 05:53:41;;;;;;;47.77;20.17;;;;;;;;;;6202132;23;20207;-91
2023/02/17 05:56:48;;;;;;;52.40;21.33;;;;;;;;;;6201123;23;20221;-91
2023/02/17 05:59:53;;;;;;;57.93;24.07;;;;;;;;;;6200298;23;20247;-89
2023/02/17 06:02:59;;;;;;;51.20;21.73;;;;;;;;;;6200691;23;20179;-91
2023/02/17 06:06:04;;;;;;;47.30;20.93;;;;;;;;;;6201928;23;20168;-94
2023/02/17 06:09:09;;;;;;;49.67;20.17;;;;;;;;;;6202109;23;20188;-92
2023/02/17 06:12:16;;;;;;;51.30;21.40;;;;;;;;;;6201767;23;20244;-90
2023/02/17 06:15:21;;;;;;;47.20;20.93;;;;;;;;;;6184592;23;20610;-90
2023/02/17 06:18:27;;;;;;;49.37;20.70;;;;;;;;;;6202755;23;20236;-90
2023/02/17 06:21:34;;;;;;;48.37;21.00;;;;;;;;;;6184791;23;20227;-92
2023/02/17 06:24:39;;;;;;;47.57;21.63;;;;;;;;;;6203216;23;20164;-90
2023/02/17 06:27:46;;;;;;;49.87;21.73;;;;;;;;;;6185362;23;20215;-91
2023/02/17 06:30:54;;;;;;;50.77;21.43;;;;;;;;;;6184662;23;20200;-88
2023/02/17 06:34:01;;;;;;;51.47;21.37;;;;;;;;;;6207059;23;20176;-91
2023/02/17 06:37:07;;;;;;;50.97;22.03;;;;;;;;;;6186965;23;20163;-91
2023/02/17 06:40:12;;;;;;;50.63;21.43;;;;;;;;;;6205780;23;20184;-92
2023/02/17 06:43:19;;;;;;;50.57;20.70;;;;;;;;;;6204018;23;20488;-89
2023/02/17 06:46:24;;;;;;;46.63;20.17;;;;;;;;;;6201747;23;20191;-90
2023/02/17 06:49:30;;;;;;;46.67;21.67;;;;;;;;;;6185101;23;20164;-88
2023/02/17 06:52:36;;;;;;;49.93;20.80;;;;;;;;;;6185787;23;20164;-91
2023/02/17 06:55:41;;;;;;;49.93;20.30;;;;;;;;;;6186095;23;20209;-91
2023/02/17 06:58:48;;;;;;;43.90;19.47;;;;;;;;;;6183543;23;20163;-89
2023/02/17 07:02:32;;;;;;;49.67;20.90;;;;;;;;;;6182964;23;20167;-91
2023/02/17 07:05:38;;;;;;;54.53;23.00;;;;;;;;;;6183085;23;20163;-90
2023/02/17 07:08:44;;;;;;;51.87;22.80;;;;;;;;;;6199197;23;20242;-89
2023/02/17 07:11:50;;;;;;;74.23;28.20;;;;;;;;;;6184100;23;20171;-89
2023/02/17 07:14:58;;;;;;;58.63;22.97;;;;;;;;;;6199848;23;20231;-91
2023/02/17 07:18:04;;;;;;;55.10;24.07;;;;;;;;;;6183861;23;20164;-91
2023/02/17 07:21:10;;;;;;;57.17;23.73;;;;;;;;;;6184557;23;20195;-89
2023/02/17 07:24:15;;;;;;;56.73;22.80;;;;;;;;;;6184144;23;20506;-91
2023/02/17 07:27:20;;;;;;;57.40;24.87;;;;;;;;;;6200603;23;20216;-90
2023/02/17 07:30:27;;;;;;;57.00;24.83;;;;;;;;;;6183657;23;20147;-89
2023/02/17 07:33:32;;;;;;;50.53;21.37;;;;;;;;;;6201038;23;20167;-87
2023/02/17 07:36:38;;;;;;;55.63;22.63;;;;;;;;;;6189718;23;20168;-90
2023/02/17 07:39:44;;;;;;;52.37;22.13;;;;;;;;;;6202671;23;20164;-91
2023/02/17 07:42:50;;;;;;;47.83;21.37;;;;;;;;;;6182302;23;20755;-88
2023/02/17 07:45:56;;;;;;;49.93;21.97;;;;;;;;;;6183422;23;20199;-92
2023/02/17 07:49:02;;;;;;;48.03;21.17;;;;;;;;;;6182786;23;20688;-89
2023/02/17 07:52:08;;;;;;;51.47;21.57;;;;;;;;;;6200603;23;20171;-89
2023/02/17 07:55:13;;;;;;;51.37;22.40;;;;;;;;;;6181576;23;20264;-91
2023/02/17 07:58:21;;;;;;;52.00;22.13;;;;;;;;;;6204996;23;20159;-90
2023/02/17 08:01:52;;;;;;;50.77;22.27;;;;;;;;;;6189455;23;20184;-90
2023/02/17 08:05:00;;;;;;;48.00;21.57;;;;;;;;;;6201927;23;20175;-90
2023/02/17 08:14:51;;;;;;;53.10;21.97;;;;;;;;;;6181950;23;20164;-90
2023/02/17 08:17:57;;;;;;;53.67;22.53;;;;;;;;;;6182569;23;20177;-90
2023/02/17 08:21:11;;;;;;;52.13;22.53;;;;;;;;;;6197833;23;20196;-90
2023/02/17 08:24:18;;;;;;;56.77;23.07;;;;;;;;;;6183045;23;20159;-91
2023/02/17 08:27:23;;;;;;;48.37;21.70;;;;;;;;;;6187962;23;20176;-89
2023/02/17 08:30:28;;;;;;;50.60;21.70;;;;;;;;;;6185035;23;20174;-91
2023/02/17 08:33:34;;;;;;;55.13;22.77;;;;;;;;;;6202881;23;20547;-92
2023/02/17 08:36:41;;;;;;;56.10;21.57;;;;;;;;;;6184200;23;20635;-90
2023/02/17 08:39:46;;;;;;;47.00;19.67;;;;;;;;;;6202828;23;20176;-93
2023/02/17 08:42:52;;;;;;;49.67;21.47;;;;;;;;;;6186477;23;20223;-89
2023/02/17 08:45:57;;;;;;;59.53;23.70;;;;;;;;;;6185328;23;20195;-91
2023/02/17 08:49:02;;;;;;;55.20;22.57;;;;;;;;;;6184934;23;20246;-91
2023/02/17 08:52:11;;;;;;;58.43;22.93;;;;;;;;;;6201238;23;20167;-91
2023/02/17 08:55:19;;;;;;;56.67;24.10;;;;;;;;;;6183751;23;20627;-91
2023/02/17 08:58:24;;;;;;;50.87;23.57;;;;;;;;;;6200738;23;20219;-91
2023/02/17 09:05:02;;;;;;;51.87;22.63;;;;;;;;;;6183640;23;20195;-92
2023/02/17 09:08:10;;;;;;;56.17;22.83;;;;;;;;;;6201532;23;20143;-91
2023/02/17 09:11:19;;;;;;;53.07;23.20;;;;;;;;;;6185557;23;20172;-90
2023/02/17 09:14:25;;;;;;;55.30;22.47;;;;;;;;;;6181639;23;20176;-92
2023/02/17 09:17:30;;;;;;;57.57;22.33;;;;;;;;;;6183323;23;20167;-91
2023/02/17 09:24:26;;;;;;;59.83;24.23;;;;;;;;;;6185825;23;20214;-91
2023/02/17 09:27:32;;;;;;;59.40;21.30;;;;;;;;;;6183568;23;20416;-90
2023/02/17 11:02:06;;;;;;;53.42;23.05;;;;;;;;;;6147034;23;20196;-93
2023/02/17 11:05:21;;;;;;;48.50;22.77;;;;;;;;;;6128428;23;20173;-89
2023/02/17 11:08:34;;;;;;;62.45;26.08;;;;;;;;;;6127621;23;20173;-92
2023/02/17 11:11:49;;;;;;;51.67;22.92;;;;;;;;;;6128005;23;20197;-93
2023/02/17 11:14:58;;;;;;;46.97;22.98;;;;;;;;;;6130809;23;20178;-91
2023/02/17 11:18:11;;;;;;;48.35;22.65;;;;;;;;;;6143224;23;20169;-90
2023/02/17 11:21:20;;;;;;;52.42;21.58;;;;;;;;;;6128669;23;20197;-91
2023/02/17 11:27:52;;;;;;;51.35;22.17;;;;;;;;;;6129362;23;20165;-93
2023/02/17 11:30:59;;;;;;;54.13;23.55;;;;;;;;;;6127285;23;20180;-92
2023/02/17 11:34:16;;;;;;;49.13;21.95;;;;;;;;;;6127738;23;20154;-91
2023/02/17 11:37:25;;;;;;;41.35;19.38;;;;;;;;;;6124756;23;20173;-91
2023/02/17 11:40:33;;;;;;;37.22;18.55;;;;;;;;;;6126214;23;20193;-91
2023/02/17 11:43:39;;;;;;;36.92;17.48;;;;;;;;;;6125282;23;20226;-91
2023/02/17 11:46:48;;;;;;;40.58;18.85;;;;;;;;;;6142723;23;20173;-91
2023/02/17 11:50:18;;;;;;;37.05;17.90;;;;;;;;;;6125208;23;20169;-93
2023/02/17 11:53:27;;;;;;;47.28;21.48;;;;;;;;;;6126209;23;20168;-91
2023/02/17 11:56:35;;;;;;;40.75;19.33;;;;;;;;;;6127037;23;20181;-90
2023/02/17 11:59:52;;;;;;;38.13;19.05;;;;;;;;;;6127139;23;20181;-90
2023/02/17 12:03:14;;;;;;;39.15;18.08;;;;;;;;;;6125788;23;20194;-92
2023/02/17 12:06:25;;;;;;;36.28;16.92;;;;;;;;;;6127577;23;20173;-92
2023/02/17 12:09:37;;;;;;;35.70;16.40;;;;;;;;;;6143492;23;20181;-89
2023/02/17 12:12:55;;;;;;;33.03;15.75;;;;;;;;;;6141565;23;20189;-92
2023/02/17 12:16:10;;;;;;;33.60;16.13;;;;;;;;;;6142843;23;20239;-90
2023/02/17 12:19:26;;;;;;;36.33;16.38;;;;;;;;;;6124605;23;20243;-90
2023/02/17 12:22:39;;;;;;;28.20;14.52;;;;;;;;;;6141039;23;20260;-88
2023/02/17 12:25:48;;;;;;;27.90;14.80;;;;;;;;;;6143556;23;20168;-91
2023/02/17 12:29:07;;;;;;;34.95;15.55;;;;;;;;;;6141029;23;20173;-91
2023/02/17 12:32:21;;;;;;;38.97;16.38;;;;;;;;;;6125675;23;20177;-90
2023/02/17 12:35:32;;;;;;;33.88;16.65;;;;;;;;;;6126790;23;20174;-91
2023/02/17 12:38:42;;;;;;;36.85;17.75;;;;;;;;;;6126294;23;20176;-92
2023/02/17 12:41:50;;;;;;;38.28;18.63;;;;;;;;;;6143780;23;20185;-92
2023/02/17 12:44:57;;;;;;;33.35;17.00;;;;;;;;;;6125142;23;20256;-90
2023/02/17 12:48:06;;;;;;;36.63;16.83;;;;;;;;;;6126609;23;20173;-90
2023/02/17 12:51:13;;;;;;;33.63;15.95;;;;;;;;;;6141763;23;20172;-89
2023/02/17 12:54:25;;;;;;;35.92;16.05;;;;;;;;;;6143224;23;20268;-90
2023/02/17 12:57:39;;;;;;;36.88;15.77;;;;;;;;;;6141008;23;20209;-91
2023/02/17 13:04:25;;;;;;;27.95;13.50;;;;;;;;;;6142776;23;20170;-90
2023/02/17 13:07:50;;;;;;;31.33;13.88;;;;;;;;;;6127008;23;20635;-92
2023/02/17 13:11:02;;;;;;;31.40;13.43;;;;;;;;;;6125403;23;20153;-91
2023/02/17 13:14:12;;;;;;;30.45;13.73;;;;;;;;;;6126463;23;20245;-91
2023/02/17 13:17:25;;;;;;;25.88;12.95;;;;;;;;;;6126661;23;20174;-89
2023/02/17 13:20:52;;;;;;;29.65;13.77;;;;;;;;;;6126784;23;20169;-88
2023/02/17 13:24:02;;;;;;;35.25;14.27;;;;;;;;;;6143979;23;20170;-93
2023/02/17 13:27:13;;;;;;;32.85;14.88;;;;;;;;;;6129863;23;20154;-90
2023/02/17 13:30:29;;;;;;;37.40;17.60;;;;;;;;;;6127552;23;20173;-90
2023/02/17 13:33:40;;;;;;;41.10;18.35;;;;;;;;;;6126278;23;20169;-91
2023/02/17 13:36:45;;;;;;;44.03;21.13;;;;;;;;;;6146140;23;20574;-93
2023/02/17 13:39:51;;;;;;;46.35;20.15;;;;;;;;;;6126830;23;20301;-88
2023/02/17 13:42:59;;;;;;;43.10;19.90;;;;;;;;;;6126277;23;20201;-91
2023/02/17 13:46:08;;;;;;;41.38;18.88;;;;;;;;;;6129046;23;20162;-91
2023/02/17 13:49:22;;;;;;;39.00;18.15;;;;;;;;;;6145846;23;20280;-91
2023/02/17 13:52:28;;;;;;;35.88;18.08;;;;;;;;;;6130219;23;20229;-90
2023/02/17 13:55:33;;;;;;;37.03;18.70;;;;;;;;;;6126213;23;20643;-90
2023/02/17 13:58:42;;;;;;;36.05;14.75;;;;;;;;;;6141313;23;20169;-92
2023/02/17 14:02:22;;;;;;;28.25;13.88;;;;;;;;;;6124274;23;20238;-90
2023/02/17 14:05:31;;;;;;;30.35;15.57;;;;;;;;;;6146338;23;20169;-93
2023/02/17 14:08:39;;;;;;;31.77;15.55;;;;;;;;;;6128673;23;20169;-90
2023/02/17 14:11:45;;;;;;;35.95;15.80;;;;;;;;;;6143641;23;20181;-93
2023/02/17 14:14:54;;;;;;;33.58;15.95;;;;;;;;;;6127525;23;20206;-89
2023/02/17 14:18:00;;;;;;;35.35;16.17;;;;;;;;;;6127223;23;20165;-90
2023/02/17 14:21:24;;;;;;;42.60;17.40;;;;;;;;;;6145302;23;20172;-90
2023/02/17 14:24:31;;;;;;;44.28;18.08;;;;;;;;;;6144869;23;20225;-92
2023/02/17 14:27:43;;;;;;;52.85;23.20;;;;;;;;;;6146228;23;20169;-91
2023/02/17 14:30:51;;;;;;;46.67;20.65;;;;;;;;;;6145153;23;20177;-91
2023/02/17 14:33:58;;;;;;;37.03;18.98;;;;;;;;;;6128953;23;20177;-91
2023/02/17 14:37:10;;;;;;;35.50;17.88;;;;;;;;;;6144416;23;20165;-90
2023/02/17 14:40:19;;;;;;;37.53;17.27;;;;;;;;;;6126638;23;20181;-91
2023/02/17 14:43:25;;;;;;;39.67;17.50;;;;;;;;;;6125543;23;20476;-91
2023/02/17 14:46:34;;;;;;;37.35;18.13;;;;;;;;;;6125887;23;20169;-91
2023/02/17 14:49:39;;;;;;;35.28;17.45;;;;;;;;;;6143796;23;20608;-91
2023/02/17 14:52:46;;;;;;;33.65;17.27;;;;;;;;;;6142609;23;20218;-90
2023/02/17 14:55:54;;;;;;;39.85;18.23;;;;;;;;;;6142891;23;20169;-90
2023/02/17 14:58:59;;;;;;;36.72;18.40;;;;;;;;;;6126752;23;20222;-91
2023/02/17 15:02:07;;;;;;;37.78;17.70;;;;;;;;;;6142778;23;20217;-91
2023/02/17 15:05:12;;;;;;;44.50;20.50;;;;;;;;;;6127276;23;20169;-90
2023/02/17 15:08:21;;;;;;;45.22;19.30;;;;;;;;;;6125881;23;20172;-90
2023/02/17 15:11:29;;;;;;;48.15;19.73;;;;;;;;;;6129263;23;20680;-90
2023/02/17 15:14:37;;;;;;;39.80;20.00;;;;;;;;;;6127452;23;20182;-93
2023/02/17 15:17:44;;;;;;;44.53;20.23;;;;;;;;;;6126280;23;20174;-92
2023/02/17 15:21:15;;;;;;;51.88;25.63;;;;;;;;;;6143668;23;20190;-93
2023/02/17 15:24:20;;;;;;;71.15;32.60;;;;;;;;;;6125874;23;20174;-91
2023/02/17 15:27:26;;;;;;;63.95;26.02;;;;;;;;;;6144251;23;20198;-90
2023/02/17 15:30:31;;;;;;;86.70;36.38;;;;;;;;;;6126969;23;20240;-90
2023/02/17 15:33:40;;;;;;;70.93;30.55;;;;;;;;;;6126471;23;20713;-89
2023/02/17 15:36:45;;;;;;;47.63;21.83;;;;;;;;;;6142893;23;20242;-89
2023/02/17 15:39:51;;;;;;;44.55;21.25;;;;;;;;;;6146574;23;20161;-90
2023/02/17 15:43:09;;;;;;;73.85;32.42;;;;;;;;;;6128902;23;20181;-91
2023/02/17 15:46:15;;;;;;;55.13;25.63;;;;;;;;;;6130583;23;20209;-91
2023/02/17 15:49:24;;;;;;;50.45;23.73;;;;;;;;;;6144737;23;20170;-90
2023/02/17 15:52:30;;;;;;;95.57;39.55;;;;;;;;;;6145047;23;20172;-89
2023/02/17 15:55:36;;;;;;;41.25;21.27;;;;;;;;;;6132309;23;20197;-90
2023/02/17 15:58:41;;;;;;;50.67;22.27;;;;;;;;;;6146366;23;20157;-89
2023/02/17 16:06:07;;;;;;;45.75;21.38;;;;;;;;;;6116019;23;20206;-90
2023/02/17 16:09:14;;;;;;;67.57;33.28;;;;;;;;;;6116889;23;20165;-92
2023/02/17 16:12:25;;;;;;;57.20;27.63;;;;;;;;;;6113848;23;20165;-90
2023/02/17 16:15:32;;;;;;;54.13;24.55;;;;;;;;;;6113956;23;20173;-92
2023/02/17 16:18:42;;;;;;;50.47;23.60;;;;;;;;;;6114215;23;20178;-91
2023/02/17 16:21:57;;;;;;;51.83;22.25;;;;;;;;;;6113571;23;20189;-90
2023/02/17 16:25:06;;;;;;;43.13;21.05;;;;;;;;;;6113265;23;20178;-93
2023/02/17 16:28:18;;;;;;;45.40;22.80;;;;;;;;;;6114411;23;20190;-89
2023/02/17 16:31:24;;;;;;;51.55;25.38;;;;;;;;;;6114692;23;20166;-91
2023/02/17 16:34:32;;;;;;;48.42;24.55;;;;;;;;;;6113191;23;20244;-90
2023/02/17 16:37:40;;;;;;;49.75;23.85;;;;;;;;;;6097274;23;20162;-89
2023/02/17 16:40:50;;;;;;;54.13;26.90;;;;;;;;;;6114150;23;20174;-90
2023/02/17 16:43:55;;;;;;;46.97;20.77;;;;;;;;;;6115104;23;20194;-92
2023/02/17 16:47:01;;;;;;;37.55;20.63;;;;;;;;;;6115422;23;20226;-93
2023/02/17 16:50:08;;;;;;;45.50;20.13;;;;;;;;;;6114627;23;20174;-88
2023/02/17 16:53:15;;;;;;;51.22;23.55;;;;;;;;;;6112286;23;20203;-90
2023/02/17 16:56:23;;;;;;;49.38;21.45;;;;;;;;;;6117304;23;20170;-93
2023/02/17 16:59:29;;;;;;;38.85;18.60;;;;;;;;;;6122211;23;20196;-91
2023/02/17 17:03:20;;;;;;;38.00;19.25;;;;;;;;;;6129284;23;20196;-93
2023/02/17 17:06:26;;;;;;;46.95;21.98;;;;;;;;;;6127698;23;20180;-90
2023/02/17 17:09:33;;;;;;;44.60;21.08;;;;;;;;;;6129384;23;20288;-89
2023/02/17 17:12:38;;;;;;;39.22;18.10;;;;;;;;;;6129816;23;20249;-94
2023/02/17 17:15:44;;;;;;;39.92;19.20;;;;;;;;;;6131600;23;20296;-94
2023/02/17 17:19:26;;;;;;;39.50;19.63;;;;;;;;;;6127368;23;20230;-91
2023/02/17 17:25:56;;;;;;;46.08;21.17;;;;;;;;;;6150538;23;20200;-89
2023/02/17 23:21:58;;;;;;;20.63;10.80;;;;;;;;;;6160417;23;20215;-89
2023/02/17 23:25:03;;;;;;;10.10;4.73;;;;;;;;;;6180983;23;20631;-90
2023/02/17 23:28:09;;;;;;;10.65;3.58;;;;;;;;;;6183568;23;20175;-90
2023/02/17 23:31:15;;;;;;;11.07;3.97;;;;;;;;;;6182244;23;20179;-87
2023/02/17 23:34:20;;;;;;;15.13;4.78;;;;;;;;;;6182079;23;20167;-91
2023/02/17 23:37:27;;;;;;;8.93;3.92;;;;;;;;;;6180908;23;20225;-89
2023/02/17 23:40:33;;;;;;;6.30;3.60;;;;;;;;;;6181481;23;20168;-91
2023/02/17 23:43:40;;;;;;;13.27;4.47;;;;;;;;;;6180833;23;20195;-89
2023/02/17 23:46:45;;;;;;;10.15;4.38;;;;;;;;;;6180789;23;20172;-89
2023/02/17 23:49:51;;;;;;;11.10;4.57;;;;;;;;;;6182975;23;20188;-90
2023/02/17 23:52:58;;;;;;;9.45;4.43;;;;;;;;;;6180742;23;20168;-90
2023/02/17 23:56:05;;;;;;;8.73;4.55;;;;;;;;;;6183722;23;20171;-91
2023/02/17 23:59:11;;;;;;;11.77;5.15;;;;;;;;;;6182271;23;20235;-89
